createdAt,value
2022-11-13T11:04:32.710Z,13.63
2022-11-13T11:07:21.911Z,11.87
2022-11-13T11:09:53.798Z,12.77
2022-11-13T11:12:31.158Z,11.50
2022-11-13T11:15:01.401Z,12.37
2022-11-13T11:17:51.603Z,12.90
2022-11-13T11:20:48.620Z,12.53
2022-11-13T11:23:37.377Z,12.93
2022-11-13T11:26:21.610Z,12.53
2022-11-13T11:29:09.113Z,13.40
2022-11-13T11:31:51.039Z,13.83
2022-11-13T11:34:39.050Z,12.83
2022-11-13T11:37:18.230Z,13.23
2022-11-13T11:40:14.930Z,11.73
2022-11-13T11:43:00.946Z,13.13
2022-11-13T11:45:44.910Z,13.10
2022-11-13T11:51:18.848Z,12.73
2022-11-13T11:54:05.708Z,13.10
2022-11-13T11:56:47.168Z,12.60
2022-11-13T11:59:45.633Z,12.20
2022-11-13T12:02:41.291Z,11.87
2022-11-13T12:05:19.951Z,12.63
2022-11-13T12:08:22.907Z,12.30
2022-11-13T12:11:04.089Z,12.07
2022-11-13T12:13:33.970Z,11.70
2022-11-13T12:16:30.058Z,12.13
2022-11-13T12:19:04.536Z,12.00
2022-11-13T12:22:11.153Z,11.57
2022-11-13T12:25:17.649Z,12.13
2022-11-13T12:28:29.688Z,11.60
2022-11-13T12:31:20.126Z,12.20
2022-11-13T12:34:09.927Z,12.47
2022-11-13T12:36:42.694Z,12.50
2022-11-13T12:39:37.431Z,11.80
2022-11-13T12:42:34.372Z,11.93
2022-11-13T12:45:27.826Z,11.60
2022-11-13T12:47:54.513Z,11.27
2022-11-13T12:50:28.766Z,11.90
2022-11-13T12:53:04.916Z,12.10
2022-11-13T12:55:39.006Z,11.90
2022-11-13T12:58:24.849Z,11.87
2022-11-13T13:01:15.496Z,12.70
2022-11-13T13:04:11.342Z,11.73
2022-11-13T13:07:07.483Z,12.30
2022-11-13T13:09:43.182Z,11.80
2022-11-13T13:12:40.851Z,12.37
2022-11-13T13:15:26.851Z,12.47
2022-11-13T13:18:20.355Z,12.10
2022-11-13T13:21:14.544Z,12.07
2022-11-13T13:24:26.917Z,11.70
2022-11-13T13:26:56.753Z,12.23
2022-11-13T13:29:30.553Z,12.23
2022-11-13T13:32:23.226Z,12.20
2022-11-13T13:35:32.106Z,11.87
2022-11-13T13:38:30.391Z,12.00
2022-11-13T13:41:31.160Z,11.80
2022-11-13T13:44:24.929Z,11.93
2022-11-13T13:46:52.949Z,12.10
2022-11-13T13:52:05.391Z,11.47
2022-11-13T13:54:37.898Z,12.07
2022-11-13T13:57:04.780Z,12.00
2022-11-13T13:59:36.918Z,12.00
2022-11-13T14:02:14.953Z,12.23
2022-11-13T14:04:53.932Z,12.30
2022-11-13T14:07:33.052Z,12.37
2022-11-13T14:10:26.518Z,12.60
2022-11-13T14:12:53.599Z,11.67
2022-11-13T14:15:28.980Z,12.30
2022-11-13T14:20:47.189Z,11.50
2022-11-13T14:23:47.667Z,11.70
2022-11-13T14:26:19.079Z,11.80
2022-11-13T14:28:56.566Z,11.77
2022-11-13T14:31:30.477Z,11.48
2022-11-13T14:34:01.302Z,11.80
2022-11-13T14:36:34.632Z,12.00
2022-11-13T14:39:03.001Z,12.03
2022-11-13T14:41:41.160Z,12.20
2022-11-13T14:44:11.677Z,11.80
2022-11-13T14:46:47.721Z,12.50
2022-11-13T14:49:28.355Z,12.00
2022-11-13T14:51:56.644Z,12.50
2022-11-13T14:55:08.229Z,12.70
2022-11-13T14:57:27.297Z,12.67
2022-11-13T14:59:54.044Z,12.90
2022-11-13T15:02:24.906Z,12.57
2022-11-13T15:04:51.661Z,12.40
2022-11-13T15:07:29.970Z,12.20
2022-11-13T15:09:58.331Z,12.30
2022-11-13T15:12:25.315Z,12.20
2022-11-13T15:14:52.291Z,12.47
2022-11-13T15:17:21.459Z,12.00
2022-11-13T15:19:51.424Z,12.23
2022-11-13T15:22:27.175Z,12.40
2022-11-13T15:24:54.530Z,12.30
2022-11-13T15:27:21.265Z,12.00
2022-11-13T15:29:47.916Z,11.37
2022-11-13T15:32:16.467Z,11.90
2022-11-13T15:34:43.995Z,12.40
2022-11-13T15:37:15.972Z,12.40
2022-11-13T15:39:42.967Z,12.03
2022-11-13T15:42:18.616Z,12.40
2022-11-13T15:44:46.174Z,12.03
2022-11-13T15:47:25.367Z,12.47
2022-11-13T15:50:10.173Z,12.50
2022-11-13T15:52:41.336Z,12.97
2022-11-13T15:55:18.935Z,12.67
2022-11-13T15:57:46.052Z,12.17
2022-11-13T16:00:21.636Z,12.40
2022-11-13T16:02:53.045Z,12.37
2022-11-13T16:08:16.858Z,12.60
2022-11-13T16:10:45.485Z,12.60
2022-11-13T16:13:12.480Z,12.90
2022-11-13T16:15:39.442Z,12.53
2022-11-13T16:18:31.837Z,12.73
2022-11-13T16:21:15.117Z,12.20
2022-11-13T16:23:45.009Z,12.10
2022-11-13T16:26:26.749Z,12.07
2022-11-13T16:31:41.828Z,12.37
2022-11-13T16:34:08.689Z,12.60
2022-11-13T16:36:35.751Z,12.00
2022-11-13T16:39:02.852Z,11.80
2022-11-13T16:41:31.887Z,12.10
2022-11-13T16:43:58.621Z,12.23
2022-11-13T16:46:32.624Z,12.27
2022-11-13T16:48:59.690Z,11.93
2022-11-13T16:51:27.018Z,12.73
2022-11-13T16:53:53.817Z,11.50
2022-11-13T16:56:29.274Z,11.90
2022-11-13T16:58:56.811Z,11.80
2022-11-13T17:01:24.964Z,11.63
2022-11-13T17:03:52.658Z,11.70
2022-11-13T17:06:28.302Z,11.53
2022-11-13T17:08:57.466Z,11.60
2022-11-13T17:11:26.819Z,12.00
2022-11-13T17:13:56.373Z,11.90
2022-11-13T17:16:24.704Z,11.50
2022-11-13T17:18:54.806Z,12.30
2022-11-13T17:21:23.766Z,11.70
2022-11-13T17:24:02.068Z,12.10
2022-11-13T17:26:31.009Z,11.90
2022-11-13T17:29:02.077Z,11.83
2022-11-13T17:31:29.021Z,12.30
2022-11-13T17:33:55.877Z,12.00
2022-11-13T17:36:23.034Z,12.20
2022-11-13T17:38:50.066Z,12.40
2022-11-13T17:41:17.353Z,12.70
2022-11-13T17:43:44.668Z,12.07
2022-11-13T17:46:16.761Z,11.23
2022-11-13T17:48:44.448Z,12.07
2022-11-13T17:51:14.006Z,13.63
2022-11-13T17:53:41.226Z,14.60
2022-11-13T17:56:11.791Z,17.07
2022-11-13T17:58:40.649Z,14.60
2022-11-13T18:01:16.033Z,16.77
2022-11-13T18:03:43.394Z,15.00
2022-11-13T18:06:13.706Z,15.77
2022-11-13T18:08:43.430Z,15.10
2022-11-13T18:11:12.925Z,11.73
2022-11-13T18:13:39.863Z,11.57
2022-11-13T18:16:08.941Z,9.10
2022-11-13T18:18:36.065Z,10.10
2022-11-13T18:21:23.485Z,9.50
2022-11-13T18:24:06.719Z,9.70
2022-11-13T18:26:34.143Z,8.87
2022-11-13T18:29:01.811Z,8.33
2022-11-13T18:31:29.634Z,8.77
2022-11-13T18:33:59.276Z,8.13
2022-11-13T18:36:26.513Z,10.20
2022-11-13T18:38:54.201Z,8.90
2022-11-13T18:41:23.440Z,11.23
2022-11-13T18:43:51.751Z,8.23
2022-11-13T18:46:20.452Z,9.07
2022-11-13T18:48:48.369Z,8.30
2022-11-13T18:51:23.753Z,8.20
2022-11-13T18:53:52.059Z,7.93
2022-11-13T18:56:22.362Z,7.87
2022-11-13T18:58:50.925Z,8.57
2022-11-13T19:01:22.707Z,7.90
2022-11-13T19:04:16.044Z,7.80
2022-11-13T19:06:38.640Z,7.33
2022-11-13T19:09:08.568Z,8.97
2022-11-13T19:11:35.529Z,7.80
2022-11-13T19:14:03.083Z,9.63
2022-11-13T19:16:34.362Z,9.80
2022-11-13T19:19:04.017Z,9.40
2022-11-13T19:21:32.500Z,9.57
2022-11-13T19:24:01.298Z,8.83
2022-11-13T19:26:28.697Z,9.13
2022-11-13T19:28:55.942Z,9.30
2022-11-13T19:31:25.149Z,9.07
2022-11-13T19:34:04.184Z,8.37
2022-11-13T19:36:32.059Z,8.37
2022-11-13T19:38:59.702Z,8.53
2022-11-13T19:41:28.793Z,8.00
2022-11-13T19:43:59.403Z,7.80
2022-11-13T19:46:26.700Z,6.73
2022-11-13T19:48:53.641Z,6.73
2022-11-13T19:51:22.830Z,7.07
2022-11-13T19:53:54.995Z,7.40
2022-11-13T19:56:23.137Z,9.10
2022-11-13T19:58:51.400Z,7.80
2022-11-13T20:01:23.769Z,7.37
2022-11-13T20:03:57.680Z,6.77
2022-11-13T20:06:25.002Z,7.77
2022-11-13T20:08:52.019Z,7.40
2022-11-13T20:11:19.088Z,7.93
2022-11-13T20:13:46.395Z,6.67
2022-11-13T20:16:15.355Z,7.13
2022-11-13T20:18:43.410Z,7.17
2022-11-13T20:21:11.059Z,6.87
2022-11-13T20:23:38.589Z,6.63
2022-11-13T20:26:11.924Z,7.30
2022-11-13T20:28:38.709Z,7.50
2022-11-13T20:31:07.567Z,7.83
2022-11-13T20:33:35.210Z,7.30
2022-11-13T20:36:03.218Z,6.80
2022-11-13T20:38:30.619Z,7.80
2022-11-13T20:40:57.611Z,7.50
2022-11-13T20:43:24.477Z,7.40
2022-11-13T20:45:51.415Z,7.53
2022-11-13T20:48:18.187Z,8.50
2022-11-13T20:50:45.010Z,12.17
2022-11-13T20:53:12.182Z,16.13
2022-11-13T20:55:39.030Z,19.47
2022-11-13T20:58:05.860Z,18.73
2022-11-13T21:00:32.677Z,27.53
2022-11-13T21:02:59.466Z,20.17
2022-11-13T21:05:27.855Z,19.43
2022-11-13T21:07:54.713Z,23.60
2022-11-13T21:10:21.579Z,22.67
2022-11-13T21:12:48.324Z,20.37
2022-11-13T21:15:15.064Z,20.23
2022-11-13T21:17:41.973Z,22.13
2022-11-13T21:20:09.261Z,22.73
2022-11-13T21:22:36.441Z,21.97
2022-11-13T21:25:03.462Z,25.17
2022-11-13T21:27:30.189Z,25.20
2022-11-13T21:29:57.056Z,25.47
2022-11-13T21:32:23.822Z,25.97
2022-11-13T21:34:53.835Z,24.40
2022-11-13T21:37:20.553Z,26.53
2022-11-13T21:39:47.297Z,26.97
2022-11-13T21:42:14.058Z,24.23
2022-11-13T21:45:27.207Z,27.07
2022-11-13T21:47:54.130Z,26.17
2022-11-13T21:50:21.004Z,25.37
2022-11-13T21:52:47.931Z,26.07
2022-11-13T21:55:14.837Z,25.07
2022-11-13T21:57:41.791Z,27.10
2022-11-13T22:00:09.245Z,24.90
2022-11-13T22:02:36.120Z,25.70
2022-11-13T22:05:03.045Z,28.70
2022-11-13T22:07:29.963Z,26.93
2022-11-13T22:09:56.839Z,27.83
2022-11-13T22:12:23.689Z,27.57
2022-11-13T22:14:50.553Z,26.77
2022-11-13T22:17:17.361Z,26.87
2022-11-13T22:19:44.306Z,28.47
2022-11-13T22:22:11.149Z,28.27
2022-11-13T22:24:38.034Z,27.43
2022-11-13T22:27:04.843Z,29.23
2022-11-13T22:29:31.745Z,28.93
2022-11-13T22:31:58.623Z,28.67
2022-11-13T22:34:25.519Z,29.93
2022-11-13T22:36:52.456Z,29.53
2022-11-13T22:39:19.734Z,29.97
2022-11-13T22:41:46.601Z,28.47
2022-11-13T22:44:14.483Z,29.80
2022-11-13T22:46:42.670Z,29.90
2022-11-13T22:49:12.177Z,29.07
2022-11-13T22:51:41.697Z,29.33
2022-11-13T22:54:11.185Z,28.60
2022-11-13T22:56:39.501Z,28.33
2022-11-13T22:59:09.195Z,26.73
2022-11-13T23:01:38.265Z,28.43
2022-11-13T23:04:07.444Z,29.40
2022-11-13T23:06:36.028Z,29.70
2022-11-13T23:09:04.405Z,30.30
2022-11-13T23:11:41.117Z,36.03
2022-11-13T23:14:12.083Z,29.53
2022-11-13T23:16:39.313Z,30.00
2022-11-13T23:19:06.442Z,27.83
2022-11-13T23:21:36.742Z,29.60
2022-11-13T23:24:04.012Z,30.60
2022-11-13T23:26:30.839Z,29.30
2022-11-13T23:28:57.945Z,29.57
2022-11-13T23:31:24.979Z,29.33
2022-11-13T23:33:52.014Z,29.90
2022-11-13T23:36:19.136Z,31.80
2022-11-13T23:38:45.966Z,32.50
2022-11-13T23:41:12.895Z,32.07
2022-11-13T23:44:08.293Z,31.63
2022-11-13T23:46:26.664Z,27.97
2022-11-13T23:48:53.440Z,31.63
2022-11-13T23:51:20.346Z,30.87
2022-11-13T23:53:47.236Z,30.00
2022-11-13T23:56:14.112Z,31.63
2022-11-13T23:58:41.120Z,29.67
